sensor_id;sensor_type;location;lat;lon;timestamp;P1;durP1;ratioP1;P2;durP2;ratioP2
2652;SDS011;1336;48.692;9.144;2022-09-25T05:00:30;7.43;;;6.83;;
2652;SDS011;1336;48.692;9.144;2022-09-25T05:01:22;7.32;;;6.20;;
2652;SDS011;1336;48.692;9.144;2022-09-25T05:02:13;7.10;;;6.50;;
2652;SDS011;1336;48.692;9.144;2022-09-25T05:03:05;7.22;;;6.63;;
2652;SDS011;1336;48.692;9.144;2022-09-25T05:03:56;7.30;;;6.60;;
2652;SDS011;1336;48.692;9.144;2022-09-25T05:04:48;8.32;;;7.10;;
2652;SDS011;1336;48.692;9.144;2022-09-25T05:05:38;7.93;;;7.23;;
2652;SDS011;1336;48.692;9.144;2022-09-25T05:06:30;7.45;;;6.80;;
2652;SDS011;1336;48.692;9.144;2022-09-25T05:07:21;8.30;;;7.53;;
2652;SDS011;1336;48.692;9.144;2022-09-25T05:08:12;7.82;;;7.13;;
2652;SDS011;1336;48.692;9.144;2022-09-25T05:09:03;7.47;;;6.80;;
2652;SDS011;1336;48.692;9.144;2022-09-25T05:09:55;8.90;;;8.00;;
2652;SDS011;1336;48.692;9.144;2022-09-25T05:10:45;8.67;;;7.83;;
2652;SDS011;1336;48.692;9.144;2022-09-25T05:11:37;9.13;;;8.32;;
2652;SDS011;1336;48.692;9.144;2022-09-25T05:12:28;7.83;;;7.13;;
2652;SDS011;1336;48.692;9.144;2022-09-25T05:13:19;8.70;;;7.90;;
2652;SDS011;1336;48.692;9.144;2022-09-25T05:14:10;8.70;;;7.90;;
2652;SDS011;1336;48.692;9.144;2022-09-25T05:15:02;10.88;;;8.50;;
2652;SDS011;1336;48.692;9.144;2022-09-25T05:15:55;8.23;;;7.43;;
2652;SDS011;1336;48.692;9.144;2022-09-25T05:16:47;8.55;;;7.72;;
2652;SDS011;1336;48.692;9.144;2022-09-25T05:17:38;8.20;;;7.50;;
2652;SDS011;1336;48.692;9.144;2022-09-25T05:18:30;10.02;;;9.13;;
2652;SDS011;1336;48.692;9.144;2022-09-25T05:19:20;10.90;;;9.80;;
2652;SDS011;1336;48.692;9.144;2022-09-25T05:20:13;11.02;;;9.93;;
2652;SDS011;1336;48.692;9.144;2022-09-25T05:21:03;11.90;;;10.80;;
2652;SDS011;1336;48.692;9.144;2022-09-25T05:21:55;12.50;;;11.13;;
2652;SDS011;1336;48.692;9.144;2022-09-25T05:22:46;14.00;;;12.60;;
2652;SDS011;1336;48.692;9.144;2022-09-25T05:23:38;14.85;;;13.35;;
2652;SDS011;1336;48.692;9.144;2022-09-25T05:24:29;13.90;;;12.30;;
2652;SDS011;1336;48.692;9.144;2022-09-25T05:25:21;13.30;;;11.90;;
2652;SDS011;1336;48.692;9.144;2022-09-25T05:26:12;13.98;;;12.57;;
2652;SDS011;1336;48.692;9.144;2022-09-25T05:27:04;13.63;;;12.23;;
2652;SDS011;1336;48.692;9.144;2022-09-25T05:27:56;13.93;;;12.43;;
2652;SDS011;1336;48.692;9.144;2022-09-25T05:28:48;14.20;;;12.73;;
2652;SDS011;1336;48.692;9.144;2022-09-25T05:29:39;14.40;;;12.90;;
2652;SDS011;1336;48.692;9.144;2022-09-25T05:30:32;13.43;;;12.10;;
2652;SDS011;1336;48.692;9.144;2022-09-25T05:31:25;14.05;;;12.48;;
2652;SDS011;1336;48.692;9.144;2022-09-25T05:32:16;12.88;;;11.57;;
2652;SDS011;1336;48.692;9.144;2022-09-25T05:33:08;14.10;;;12.60;;
2652;SDS011;1336;48.692;9.144;2022-09-25T05:33:59;13.32;;;11.93;;
2652;SDS011;1336;48.692;9.144;2022-09-25T05:34:50;11.13;;;9.30;;
2652;SDS011;1336;48.692;9.144;2022-09-25T05:35:42;10.30;;;9.20;;
2652;SDS011;1336;48.692;9.144;2022-09-25T05:36:32;11.63;;;9.33;;
2652;SDS011;1336;48.692;9.144;2022-09-25T05:37:24;9.90;;;9.00;;
2652;SDS011;1336;48.692;9.144;2022-09-25T05:38:15;8.77;;;7.93;;
2652;SDS011;1336;48.692;9.144;2022-09-25T05:39:07;9.15;;;8.27;;
2652;SDS011;1336;48.692;9.144;2022-09-25T05:39:58;8.70;;;7.90;;
2652;SDS011;1336;48.692;9.144;2022-09-25T05:40:50;7.68;;;6.97;;
2652;SDS011;1336;48.692;9.144;2022-09-25T05:41:41;7.78;;;7.07;;
2652;SDS011;1336;48.692;9.144;2022-09-25T05:42:33;8.50;;;7.78;;
2652;SDS011;1336;48.692;9.144;2022-09-25T05:43:24;7.87;;;7.17;;
2652;SDS011;1336;48.692;9.144;2022-09-25T05:44:15;7.90;;;6.80;;
2652;SDS011;1336;48.692;9.144;2022-09-25T05:45:07;8.23;;;7.45;;
2652;SDS011;1336;48.692;9.144;2022-09-25T05:46:00;7.40;;;6.80;;
2652;SDS011;1336;48.692;9.144;2022-09-25T05:46:52;7.87;;;7.17;;
2652;SDS011;1336;48.692;9.144;2022-09-25T05:47:45;8.75;;;8.05;;
2652;SDS011;1336;48.692;9.144;2022-09-25T05:48:36;8.20;;;7.50;;
2652;SDS011;1336;48.692;9.144;2022-09-25T05:49:27;8.67;;;7.77;;
2652;SDS011;1336;48.692;9.144;2022-09-25T05:50:19;8.80;;;8.10;;
2652;SDS011;1336;48.692;9.144;2022-09-25T05:51:10;9.40;;;8.60;;
2652;SDS011;1336;48.692;9.144;2022-09-25T05:52:01;9.00;;;8.20;;
2652;SDS011;1336;48.692;9.144;2022-09-25T05:52:54;9.43;;;8.53;;
2652;SDS011;1336;48.692;9.144;2022-09-25T05:53:46;8.23;;;7.53;;
2652;SDS011;1336;48.692;9.144;2022-09-25T05:54:36;9.77;;;8.87;;
2652;SDS011;1336;48.692;9.144;2022-09-25T05:55:28;9.52;;;8.63;;
2652;SDS011;1336;48.692;9.144;2022-09-25T05:56:20;10.35;;;9.35;;
2652;SDS011;1336;48.692;9.144;2022-09-25T05:57:13;10.15;;;9.15;;
2652;SDS011;1336;48.692;9.144;2022-09-25T05:58:03;9.70;;;8.80;;
2652;SDS011;1336;48.692;9.144;2022-09-25T05:58:54;10.80;;;9.80;;
2652;SDS011;1336;48.692;9.144;2022-09-25T05:59:47;9.35;;;8.45;;
2652;SDS011;1336;48.692;9.144;2022-09-25T06:00:38;10.02;;;9.15;;
2652;SDS011;1336;48.692;9.144;2022-09-25T06:01:30;9.88;;;8.98;;
2652;SDS011;1336;48.692;9.144;2022-09-25T06:02:22;10.03;;;9.13;;
2652;SDS011;1336;48.692;9.144;2022-09-25T06:03:14;10.07;;;9.18;;
2652;SDS011;1336;48.692;9.144;2022-09-25T06:04:05;9.98;;;8.93;;
2652;SDS011;1336;48.692;9.144;2022-09-25T06:04:57;9.65;;;8.65;;
2652;SDS011;1336;48.692;9.144;2022-09-25T06:05:47;9.13;;;8.33;;
2652;SDS011;1336;48.692;9.144;2022-09-25T06:06:39;11.07;;;9.98;;
2652;SDS011;1336;48.692;9.144;2022-09-25T06:07:30;10.13;;;9.13;;
2652;SDS011;1336;48.692;9.144;2022-09-25T06:08:22;11.52;;;10.48;;
2652;SDS011;1336;48.692;9.144;2022-09-25T06:09:12;10.40;;;9.40;;
2652;SDS011;1336;48.692;9.144;2022-09-25T06:10:04;10.15;;;9.15;;
2652;SDS011;1336;48.692;9.144;2022-09-25T06:10:56;12.98;;;10.25;;
2652;SDS011;1336;48.692;9.144;2022-09-25T06:11:49;10.35;;;9.35;;
2652;SDS011;1336;48.692;9.144;2022-09-25T06:12:40;11.50;;;9.80;;
2652;SDS011;1336;48.692;9.144;2022-09-25T06:13:32;10.88;;;9.85;;
2652;SDS011;1336;48.692;9.144;2022-09-25T06:14:24;11.20;;;10.20;;
2652;SDS011;1336;48.692;9.144;2022-09-25T06:15:15;11.43;;;9.30;;
2652;SDS011;1336;48.692;9.144;2022-09-25T06:16:10;10.87;;;9.77;;
2652;SDS011;1336;48.692;9.144;2022-09-25T06:17:08;10.75;;;9.68;;
2652;SDS011;1336;48.692;9.144;2022-09-25T06:18:02;10.77;;;9.60;;
2652;SDS011;1336;48.692;9.144;2022-09-25T06:18:54;10.95;;;9.85;;
2652;SDS011;1336;48.692;9.144;2022-09-25T06:19:45;11.70;;;10.50;;
2652;SDS011;1336;48.692;9.144;2022-09-25T06:20:37;10.90;;;9.90;;
2652;SDS011;1336;48.692;9.144;2022-09-25T06:21:28;11.27;;;10.17;;
2652;SDS011;1336;48.692;9.144;2022-09-25T06:22:19;11.20;;;10.20;;
2652;SDS011;1336;48.692;9.144;2022-09-25T06:23:10;11.70;;;10.50;;
2652;SDS011;1336;48.692;9.144;2022-09-25T06:24:02;11.00;;;9.90;;
2652;SDS011;1336;48.692;9.144;2022-09-25T06:24:53;9.90;;;9.00;;
2652;SDS011;1336;48.692;9.144;2022-09-25T06:25:44;11.13;;;9.77;;
2652;SDS011;1336;48.692;9.144;2022-09-25T06:26:35;9.97;;;9.07;;
2652;SDS011;1336;48.692;9.144;2022-09-25T06:27:27;10.80;;;9.75;;
2652;SDS011;1336;48.692;9.144;2022-09-25T06:28:18;10.10;;;9.10;;
2652;SDS011;1336;48.692;9.144;2022-09-25T06:29:09;12.55;;;10.45;;
2652;SDS011;1336;48.692;9.144;2022-09-25T06:30:00;10.90;;;9.90;;
2652;SDS011;1336;48.692;9.144;2022-09-25T06:30:52;11.48;;;10.38;;
2652;SDS011;1336;48.692;9.144;2022-09-25T06:31:43;10.87;;;9.87;;
2652;SDS011;1336;48.692;9.144;2022-09-25T06:32:34;11.93;;;10.80;;
2652;SDS011;1336;48.692;9.144;2022-09-25T06:33:26;10.67;;;9.67;;
2652;SDS011;1336;48.692;9.144;2022-09-25T06:34:18;10.48;;;9.50;;
2652;SDS011;1336;48.692;9.144;2022-09-25T06:35:09;11.50;;;10.37;;
2652;SDS011;1336;48.692;9.144;2022-09-25T06:36:01;10.75;;;9.75;;
2652;SDS011;1336;48.692;9.144;2022-09-25T06:36:54;11.35;;;10.25;;
2652;SDS011;1336;48.692;9.144;2022-09-25T06:37:46;11.77;;;10.68;;
2652;SDS011;1336;48.692;9.144;2022-09-25T06:38:37;12.37;;;11.07;;
2652;SDS011;1336;48.692;9.144;2022-09-25T06:39:28;11.82;;;10.70;;
2652;SDS011;1336;48.692;9.144;2022-09-25T06:40:22;12.07;;;10.95;;
2652;SDS011;1336;48.692;9.144;2022-09-25T06:41:15;11.43;;;10.32;;
2652;SDS011;1336;48.692;9.144;2022-09-25T06:42:06;11.40;;;10.30;;
2652;SDS011;1336;48.692;9.144;2022-09-25T06:42:58;11.07;;;9.98;;
2652;SDS011;1336;48.692;9.144;2022-09-25T06:43:49;11.00;;;9.90;;
2652;SDS011;1336;48.692;9.144;2022-09-25T06:44:41;10.82;;;9.80;;
2652;SDS011;1336;48.692;9.144;2022-09-25T06:45:33;12.48;;;11.27;;
2652;SDS011;1336;48.692;9.144;2022-09-25T06:46:25;11.75;;;10.65;;
2652;SDS011;1336;48.692;9.144;2022-09-25T06:47:16;12.47;;;11.20;;
2652;SDS011;1336;48.692;9.144;2022-09-25T06:48:08;11.05;;;10.00;;
2652;SDS011;1336;48.692;9.144;2022-09-25T06:49:03;11.93;;;10.73;;
2652;SDS011;1336;48.692;9.144;2022-09-25T06:49:54;11.82;;;10.63;;
2652;SDS011;1336;48.692;9.144;2022-09-25T06:50:45;10.17;;;9.13;;
2652;SDS011;1336;48.692;9.144;2022-09-25T06:51:39;11.23;;;10.13;;
2652;SDS011;1336;48.692;9.144;2022-09-25T06:52:30;9.33;;;8.47;;
2652;SDS011;1336;48.692;9.144;2022-09-25T06:53:22;9.52;;;8.60;;
2652;SDS011;1336;48.692;9.144;2022-09-25T06:54:14;10.35;;;9.35;;
2652;SDS011;1336;48.692;9.144;2022-09-25T06:55:06;9.27;;;8.38;;
2652;SDS011;1336;48.692;9.144;2022-09-25T06:55:57;9.20;;;8.45;;
2652;SDS011;1336;48.692;9.144;2022-09-25T06:56:49;9.35;;;8.43;;
2652;SDS011;1336;48.692;9.144;2022-09-25T06:57:40;9.50;;;8.70;;
2652;SDS011;1336;48.692;9.144;2022-09-25T06:58:32;8.98;;;8.18;;
2652;SDS011;1336;48.692;9.144;2022-09-25T06:59:23;8.90;;;8.10;;
2652;SDS011;1336;48.692;9.144;2022-09-25T07:00:15;8.85;;;8.05;;
2652;SDS011;1336;48.692;9.144;2022-09-25T07:01:06;8.80;;;8.10;;
2652;SDS011;1336;48.692;9.144;2022-09-25T07:02:00;9.45;;;8.55;;
2652;SDS011;1336;48.692;9.144;2022-09-25T07:03:11;9.18;;;8.38;;
2652;SDS011;1336;48.692;9.144;2022-09-25T07:04:22;10.15;;;9.25;;
2652;SDS011;1336;48.692;9.144;2022-09-25T07:05:15;8.95;;;8.15;;
2652;SDS011;1336;48.692;9.144;2022-09-25T07:06:08;9.35;;;8.55;;
2652;SDS011;1336;48.692;9.144;2022-09-25T07:07:01;10.23;;;9.30;;
2652;SDS011;1336;48.692;9.144;2022-09-25T07:07:52;10.10;;;9.10;;
2652;SDS011;1336;48.692;9.144;2022-09-25T07:08:44;9.98;;;9.07;;
2652;SDS011;1336;48.692;9.144;2022-09-25T07:09:37;9.07;;;8.27;;
2652;SDS011;1336;48.692;9.144;2022-09-25T07:10:28;10.05;;;9.05;;
2652;SDS011;1336;48.692;9.144;2022-09-25T07:11:20;10.40;;;9.40;;
2652;SDS011;1336;48.692;9.144;2022-09-25T07:12:12;10.05;;;8.88;;
2652;SDS011;1336;48.692;9.144;2022-09-25T07:13:03;9.00;;;8.30;;
2652;SDS011;1336;48.692;9.144;2022-09-25T07:13:55;10.35;;;9.45;;
2652;SDS011;1336;48.692;9.144;2022-09-25T07:14:47;10.57;;;9.30;;
2652;SDS011;1336;48.692;9.144;2022-09-25T07:15:37;10.87;;;9.73;;
2652;SDS011;1336;48.692;9.144;2022-09-25T07:16:29;10.52;;;9.27;;
2652;SDS011;1336;48.692;9.144;2022-09-25T07:17:23;9.60;;;8.70;;
2652;SDS011;1336;48.692;9.144;2022-09-25T07:18:13;9.93;;;8.93;;
2652;SDS011;1336;48.692;9.144;2022-09-25T07:19:05;9.77;;;8.80;;
2652;SDS011;1336;48.692;9.144;2022-09-25T07:19:59;10.63;;;9.73;;
2652;SDS011;1336;48.692;9.144;2022-09-25T07:20:50;10.90;;;10.00;;
2652;SDS011;1336;48.692;9.144;2022-09-25T07:21:43;10.32;;;8.98;;
2652;SDS011;1336;48.692;9.144;2022-09-25T07:22:33;10.67;;;9.67;;
2652;SDS011;1336;48.692;9.144;2022-09-25T07:23:25;10.60;;;9.60;;
2652;SDS011;1336;48.692;9.144;2022-09-25T07:24:17;11.00;;;10.00;;
2652;SDS011;1336;48.692;9.144;2022-09-25T07:25:10;10.55;;;9.55;;
2652;SDS011;1336;48.692;9.144;2022-09-25T07:26:05;11.07;;;10.07;;
2652;SDS011;1336;48.692;9.144;2022-09-25T07:26:58;9.98;;;8.98;;
2652;SDS011;1336;48.692;9.144;2022-09-25T07:27:49;10.53;;;9.53;;
2652;SDS011;1336;48.692;9.144;2022-09-25T07:28:41;11.00;;;9.93;;
2652;SDS011;1336;48.692;9.144;2022-09-25T07:29:33;10.07;;;9.18;;
2652;SDS011;1336;48.692;9.144;2022-09-25T07:30:26;10.20;;;9.30;;
2652;SDS011;1336;48.692;9.144;2022-09-25T07:31:18;10.32;;;9.35;;
2652;SDS011;1336;48.692;9.144;2022-09-25T07:32:11;11.43;;;10.32;;
2652;SDS011;1336;48.692;9.144;2022-09-25T07:33:02;11.10;;;10.03;;
2652;SDS011;1336;48.692;9.144;2022-09-25T07:33:54;9.60;;;8.68;;
2652;SDS011;1336;48.692;9.144;2022-09-25T07:34:45;9.82;;;8.93;;
2652;SDS011;1336;48.692;9.144;2022-09-25T07:35:41;10.85;;;9.77;;
2652;SDS011;1336;48.692;9.144;2022-09-25T07:36:32;11.60;;;10.52;;
2652;SDS011;1336;48.692;9.144;2022-09-25T07:37:23;11.18;;;10.18;;
2652;SDS011;1336;48.692;9.144;2022-09-25T07:38:14;11.33;;;10.10;;
2652;SDS011;1336;48.692;9.144;2022-09-25T07:39:06;11.50;;;10.40;;
2652;SDS011;1336;48.692;9.144;2022-09-25T07:39:57;11.70;;;10.60;;
2652;SDS011;1336;48.692;9.144;2022-09-25T07:40:51;12.32;;;11.15;;
2652;SDS011;1336;48.692;9.144;2022-09-25T07:41:42;11.68;;;10.48;;
2652;SDS011;1336;48.692;9.144;2022-09-25T07:42:34;11.98;;;10.15;;
2652;SDS011;1336;48.692;9.144;2022-09-25T07:43:24;12.00;;;10.23;;
2652;SDS011;1336;48.692;9.144;2022-09-25T07:44:16;10.70;;;9.60;;
2652;SDS011;1336;48.692;9.144;2022-09-25T07:45:07;11.50;;;10.40;;
2652;SDS011;1336;48.692;9.144;2022-09-25T07:46:00;11.60;;;10.57;;
2652;SDS011;1336;48.692;9.144;2022-09-25T07:46:51;11.63;;;10.53;;
2652;SDS011;1336;48.692;9.144;2022-09-25T07:47:42;12.00;;;10.90;;
2652;SDS011;1336;48.692;9.144;2022-09-25T07:48:33;12.03;;;10.33;;
2652;SDS011;1336;48.692;9.144;2022-09-25T07:49:25;12.68;;;11.43;;
2652;SDS011;1336;48.692;9.144;2022-09-25T07:50:16;12.47;;;11.27;;
2652;SDS011;1336;48.692;9.144;2022-09-25T07:51:10;12.43;;;10.90;;
2652;SDS011;1336;48.692;9.144;2022-09-25T07:52:01;12.43;;;11.27;;
2652;SDS011;1336;48.692;9.144;2022-09-25T07:52:55;12.68;;;11.38;;
2652;SDS011;1336;48.692;9.144;2022-09-25T07:53:46;12.82;;;11.57;;
2652;SDS011;1336;48.692;9.144;2022-09-25T07:54:38;11.90;;;10.80;;
2652;SDS011;1336;48.692;9.144;2022-09-25T07:55:29;13.63;;;12.33;;
2652;SDS011;1336;48.692;9.144;2022-09-25T07:56:20;11.80;;;10.70;;
2652;SDS011;1336;48.692;9.144;2022-09-25T07:57:11;13.30;;;11.77;;
2652;SDS011;1336;48.692;9.144;2022-09-25T07:58:04;12.80;;;11.50;;
2652;SDS011;1336;48.692;9.144;2022-09-25T07:58:54;11.20;;;10.20;;
2652;SDS011;1336;48.692;9.144;2022-09-25T07:59:46;12.27;;;11.10;;
2652;SDS011;1336;48.692;9.144;2022-09-25T08:00:37;11.33;;;10.33;;
2652;SDS011;1336;48.692;9.144;2022-09-25T08:01:29;11.45;;;10.45;;
2652;SDS011;1336;48.692;9.144;2022-09-25T08:02:20;12.50;;;11.40;;
2652;SDS011;1336;48.692;9.144;2022-09-25T08:03:12;12.25;;;11.15;;
2652;SDS011;1336;48.692;9.144;2022-09-25T08:04:03;12.20;;;11.05;;
2652;SDS011;1336;48.692;9.144;2022-09-25T08:04:55;12.32;;;11.23;;
2652;SDS011;1336;48.692;9.144;2022-09-25T08:05:46;12.30;;;11.10;;
2652;SDS011;1336;48.692;9.144;2022-09-25T08:06:39;12.18;;;10.95;;
2652;SDS011;1336;48.692;9.144;2022-09-25T08:07:30;12.05;;;10.95;;
2652;SDS011;1336;48.692;9.144;2022-09-25T08:08:21;11.93;;;10.93;;
2652;SDS011;1336;48.692;9.144;2022-09-25T08:09:12;12.20;;;11.00;;
2652;SDS011;1336;48.692;9.144;2022-09-25T08:10:04;11.88;;;10.80;;
2652;SDS011;1336;48.692;9.144;2022-09-25T08:10:58;12.07;;;11.02;;
2652;SDS011;1336;48.692;9.144;2022-09-25T08:11:51;12.60;;;11.40;;
2652;SDS011;1336;48.692;9.144;2022-09-25T08:12:42;10.70;;;9.60;;
2652;SDS011;1336;48.692;9.144;2022-09-25T08:13:34;12.13;;;10.93;;
2652;SDS011;1336;48.692;9.144;2022-09-25T08:14:27;12.65;;;11.52;;
2652;SDS011;1336;48.692;9.144;2022-09-25T08:15:18;11.75;;;10.75;;
2652;SDS011;1336;48.692;9.144;2022-09-25T08:16:10;13.20;;;11.90;;
2652;SDS011;1336;48.692;9.144;2022-09-25T08:17:03;12.48;;;11.27;;
2652;SDS011;1336;48.692;9.144;2022-09-25T08:17:53;13.30;;;12.03;;
2652;SDS011;1336;48.692;9.144;2022-09-25T08:18:45;13.02;;;11.80;;
2652;SDS011;1336;48.692;9.144;2022-09-25T08:19:36;13.02;;;11.82;;
2652;SDS011;1336;48.692;9.144;2022-09-25T08:20:28;12.65;;;11.45;;
2652;SDS011;1336;48.692;9.144;2022-09-25T08:21:19;12.50;;;11.30;;
2652;SDS011;1336;48.692;9.144;2022-09-25T08:22:12;10.70;;;9.70;;
2652;SDS011;1336;48.692;9.144;2022-09-25T08:23:03;11.63;;;10.43;;
2652;SDS011;1336;48.692;9.144;2022-09-25T08:23:54;11.63;;;10.52;;
2652;SDS011;1336;48.692;9.144;2022-09-25T08:24:46;11.38;;;10.32;;
2652;SDS011;1336;48.692;9.144;2022-09-25T08:25:38;12.32;;;11.13;;
2652;SDS011;1336;48.692;9.144;2022-09-25T08:26:28;11.00;;;10.00;;
2652;SDS011;1336;48.692;9.144;2022-09-25T08:27:21;10.73;;;9.82;;
2652;SDS011;1336;48.692;9.144;2022-09-25T08:28:11;10.50;;;9.50;;
2652;SDS011;1336;48.692;9.144;2022-09-25T08:29:03;10.13;;;9.13;;
2652;SDS011;1336;48.692;9.144;2022-09-25T08:29:54;10.20;;;9.27;;
2652;SDS011;1336;48.692;9.144;2022-09-25T08:30:45;10.25;;;9.35;;
2652;SDS011;1336;48.692;9.144;2022-09-25T08:31:36;10.43;;;9.53;;
2652;SDS011;1336;48.692;9.144;2022-09-25T08:32:28;10.32;;;9.32;;
2652;SDS011;1336;48.692;9.144;2022-09-25T08:33:22;11.18;;;10.13;;
2652;SDS011;1336;48.692;9.144;2022-09-25T08:34:14;9.77;;;8.77;;
2652;SDS011;1336;48.692;9.144;2022-09-25T08:35:06;10.35;;;9.35;;
2652;SDS011;1336;48.692;9.144;2022-09-25T08:35:58;10.35;;;9.35;;
2652;SDS011;1336;48.692;9.144;2022-09-25T08:36:50;10.30;;;9.40;;
2652;SDS011;1336;48.692;9.144;2022-09-25T08:37:45;10.05;;;9.13;;
2652;SDS011;1336;48.692;9.144;2022-09-25T08:38:37;9.65;;;8.85;;
2652;SDS011;1336;48.692;9.144;2022-09-25T08:39:29;10.75;;;9.65;;
2652;SDS011;1336;48.692;9.144;2022-09-25T08:40:21;10.93;;;10.03;;
2652;SDS011;1336;48.692;9.144;2022-09-25T08:41:17;10.75;;;9.68;;
2652;SDS011;1336;48.692;9.144;2022-09-25T08:42:13;10.45;;;9.55;;
2652;SDS011;1336;48.692;9.144;2022-09-25T08:43:08;9.57;;;8.77;;
2652;SDS011;1336;48.692;9.144;2022-09-25T08:44:09;9.77;;;8.88;;
2652;SDS011;1336;48.692;9.144;2022-09-25T08:45:11;10.00;;;8.80;;
2652;SDS011;1336;48.692;9.144;2022-09-25T08:46:37;10.30;;;9.30;;
2652;SDS011;1336;48.692;9.144;2022-09-25T08:47:49;9.85;;;8.95;;
2652;SDS011;1336;48.692;9.144;2022-09-25T08:49:01;10.27;;;9.27;;
2652;SDS011;1336;48.692;9.144;2022-09-25T08:49:54;9.73;;;8.83;;
2652;SDS011;1336;48.692;9.144;2022-09-25T08:50:51;9.30;;;8.48;;
2652;SDS011;1336;48.692;9.144;2022-09-25T08:51:43;9.90;;;9.10;;
2652;SDS011;1336;48.692;9.144;2022-09-25T08:52:38;9.18;;;8.38;;
2652;SDS011;1336;48.692;9.144;2022-09-25T08:53:32;9.65;;;8.85;;
2652;SDS011;1336;48.692;9.144;2022-09-25T08:54:26;9.25;;;8.45;;
2652;SDS011;1336;48.692;9.144;2022-09-25T08:55:21;9.88;;;8.98;;
2652;SDS011;1336;48.692;9.144;2022-09-25T08:56:35;10.07;;;8.52;;
2652;SDS011;1336;48.692;9.144;2022-09-25T08:57:29;9.15;;;8.35;;
2652;SDS011;1336;48.692;9.144;2022-09-25T08:58:27;8.80;;;8.10;;
2652;SDS011;1336;48.692;9.144;2022-09-25T08:59:22;8.93;;;8.23;;
2652;SDS011;1336;48.692;9.144;2022-09-25T09:00:18;8.85;;;8.05;;
2652;SDS011;1336;48.692;9.144;2022-09-25T09:01:10;8.43;;;7.72;;
2652;SDS011;1336;48.692;9.144;2022-09-25T09:02:09;8.25;;;7.55;;
2652;SDS011;1336;48.692;9.144;2022-09-25T09:03:02;9.40;;;8.50;;
2652;SDS011;1336;48.692;9.144;2022-09-25T09:03:56;9.13;;;8.32;;
2652;SDS011;1336;48.692;9.144;2022-09-25T09:04:53;8.68;;;7.93;;
2652;SDS011;1336;48.692;9.144;2022-09-25T09:05:47;8.65;;;7.85;;
2652;SDS011;1336;48.692;9.144;2022-09-25T09:06:41;9.80;;;9.00;;
2652;SDS011;1336;48.692;9.144;2022-09-25T09:07:33;9.00;;;8.18;;
2652;SDS011;1336;48.692;9.144;2022-09-25T09:08:28;9.27;;;8.40;;
2652;SDS011;1336;48.692;9.144;2022-09-25T09:09:26;9.68;;;8.70;;
2652;SDS011;1336;48.692;9.144;2022-09-25T09:10:24;8.52;;;7.82;;
2652;SDS011;1336;48.692;9.144;2022-09-25T09:11:25;9.25;;;8.45;;
2652;SDS011;1336;48.692;9.144;2022-09-25T09:12:24;8.95;;;8.00;;
2652;SDS011;1336;48.692;9.144;2022-09-25T09:13:21;8.73;;;8.02;;
2652;SDS011;1336;48.692;9.144;2022-09-25T09:14:16;8.40;;;7.60;;
2652;SDS011;1336;48.692;9.144;2022-09-25T09:15:19;8.20;;;7.50;;
2652;SDS011;1336;48.692;9.144;2022-09-25T09:16:31;8.45;;;7.65;;
2652;SDS011;1336;48.692;9.144;2022-09-25T09:17:38;9.32;;;8.40;;
2652;SDS011;1336;48.692;9.144;2022-09-25T09:18:35;8.20;;;7.50;;
2652;SDS011;1336;48.692;9.144;2022-09-25T09:19:27;9.20;;;8.30;;
2652;SDS011;1336;48.692;9.144;2022-09-25T09:20:21;9.10;;;8.38;;
2652;SDS011;1336;48.692;9.144;2022-09-25T09:21:19;8.35;;;7.65;;
2652;SDS011;1336;48.692;9.144;2022-09-25T09:22:17;8.90;;;8.10;;
2652;SDS011;1336;48.692;9.144;2022-09-25T09:23:14;8.52;;;7.70;;
2652;SDS011;1336;48.692;9.144;2022-09-25T09:24:11;9.20;;;8.40;;
2652;SDS011;1336;48.692;9.144;2022-09-25T09:25:08;8.88;;;7.95;;
2652;SDS011;1336;48.692;9.144;2022-09-25T09:26:11;8.75;;;8.05;;
2652;SDS011;1336;48.692;9.144;2022-09-25T09:27:13;8.25;;;7.50;;
2652;SDS011;1336;48.692;9.144;2022-09-25T09:29:53;9.32;;;8.52;;
2652;SDS011;1336;48.692;9.144;2022-09-25T09:30:52;10.40;;;9.32;;
2652;SDS011;1336;48.692;9.144;2022-09-25T09:31:54;8.65;;;7.90;;
2652;SDS011;1336;48.692;9.144;2022-09-25T09:33:11;10.48;;;9.02;;
2652;SDS011;1336;48.692;9.144;2022-09-25T09:34:21;9.60;;;8.05;;
2652;SDS011;1336;48.692;9.144;2022-09-25T09:35:26;9.15;;;8.25;;
2652;SDS011;1336;48.692;9.144;2022-09-25T09:36:27;9.52;;;8.63;;
2652;SDS011;1336;48.692;9.144;2022-09-25T09:37:28;8.95;;;8.05;;
2652;SDS011;1336;48.692;9.144;2022-09-25T09:38:35;7.95;;;7.20;;
2652;SDS011;1336;48.692;9.144;2022-09-25T09:39:36;8.55;;;7.70;;
2652;SDS011;1336;48.692;9.144;2022-09-25T09:40:39;8.32;;;7.60;;
2652;SDS011;1336;48.692;9.144;2022-09-25T09:41:45;7.72;;;7.03;;
2652;SDS011;1336;48.692;9.144;2022-09-25T09:42:45;8.05;;;7.35;;
2652;SDS011;1336;48.692;9.144;2022-09-25T09:43:50;7.75;;;6.75;;
2652;SDS011;1336;48.692;9.144;2022-09-25T09:44:51;7.80;;;7.20;;
2652;SDS011;1336;48.692;9.144;2022-09-25T09:45:52;7.63;;;7.03;;
2652;SDS011;1336;48.692;9.144;2022-09-25T09:46:49;8.05;;;7.28;;
2652;SDS011;1336;48.692;9.144;2022-09-25T09:47:49;7.63;;;7.00;;
2652;SDS011;1336;48.692;9.144;2022-09-25T09:48:52;8.32;;;7.53;;
2652;SDS011;1336;48.692;9.144;2022-09-25T09:49:55;7.07;;;6.40;;
2652;SDS011;1336;48.692;9.144;2022-09-25T09:50:51;7.80;;;7.10;;
2652;SDS011;1336;48.692;9.144;2022-09-25T09:51:47;7.72;;;7.13;;
2652;SDS011;1336;48.692;9.144;2022-09-25T09:52:45;7.97;;;7.28;;
2652;SDS011;1336;48.692;9.144;2022-09-25T09:53:38;8.02;;;7.30;;
2652;SDS011;1336;48.692;9.144;2022-09-25T09:54:35;7.72;;;7.13;;
2652;SDS011;1336;48.692;9.144;2022-09-25T09:55:34;7.97;;;7.18;;
2652;SDS011;1336;48.692;9.144;2022-09-25T09:56:31;7.78;;;6.97;;
2652;SDS011;1336;48.692;9.144;2022-09-25T09:57:25;7.30;;;6.70;;
2652;SDS011;1336;48.692;9.144;2022-09-25T09:58:20;7.50;;;6.90;;
2652;SDS011;1336;48.692;9.144;2022-09-25T09:59:14;9.18;;;7.55;;
2652;SDS011;1336;48.692;9.144;2022-09-25T10:00:12;7.43;;;6.72;;
2652;SDS011;1336;48.692;9.144;2022-09-25T10:01:04;7.32;;;6.72;;
2652;SDS011;1336;48.692;9.144;2022-09-25T10:01:59;8.90;;;6.80;;
2652;SDS011;1336;48.692;9.144;2022-09-25T10:02:53;8.55;;;7.78;;
2652;SDS011;1336;48.692;9.144;2022-09-25T10:03:52;8.43;;;7.60;;
2652;SDS011;1336;48.692;9.144;2022-09-25T10:04:47;7.40;;;6.70;;
2652;SDS011;1336;48.692;9.144;2022-09-25T10:05:41;7.28;;;6.60;;
2652;SDS011;1336;48.692;9.144;2022-09-25T10:06:35;8.10;;;7.35;;
2652;SDS011;1336;48.692;9.144;2022-09-25T10:07:29;8.05;;;7.35;;
2652;SDS011;1336;48.692;9.144;2022-09-25T10:08:23;8.63;;;7.70;;
2652;SDS011;1336;48.692;9.144;2022-09-25T10:09:15;12.77;;;7.50;;
2652;SDS011;1336;48.692;9.144;2022-09-25T10:10:08;7.10;;;6.50;;
2652;SDS011;1336;48.692;9.144;2022-09-25T10:11:09;7.57;;;6.80;;
2652;SDS011;1336;48.692;9.144;2022-09-25T10:12:05;7.28;;;6.65;;
2652;SDS011;1336;48.692;9.144;2022-09-25T10:13:04;7.65;;;6.95;;
2652;SDS011;1336;48.692;9.144;2022-09-25T10:14:02;7.50;;;6.82;;
2652;SDS011;1336;48.692;9.144;2022-09-25T10:14:56;7.32;;;6.65;;
2652;SDS011;1336;48.692;9.144;2022-09-25T10:15:52;6.78;;;6.05;;
2652;SDS011;1336;48.692;9.144;2022-09-25T10:16:47;7.93;;;6.63;;
2652;SDS011;1336;48.692;9.144;2022-09-25T10:17:40;7.50;;;6.80;;
2652;SDS011;1336;48.692;9.144;2022-09-25T10:18:33;7.60;;;7.00;;
2652;SDS011;1336;48.692;9.144;2022-09-25T10:19:38;6.90;;;6.20;;
2652;SDS011;1336;48.692;9.144;2022-09-25T10:20:37;7.13;;;6.50;;
2652;SDS011;1336;48.692;9.144;2022-09-25T10:21:31;6.90;;;6.22;;
2652;SDS011;1336;48.692;9.144;2022-09-25T10:22:31;6.60;;;6.00;;
2652;SDS011;1336;48.692;9.144;2022-09-25T10:23:36;7.10;;;6.40;;
2652;SDS011;1336;48.692;9.144;2022-09-25T10:24:45;8.23;;;6.43;;
2652;SDS011;1336;48.692;9.144;2022-09-25T10:25:40;7.10;;;6.50;;
2652;SDS011;1336;48.692;9.144;2022-09-25T10:26:34;6.97;;;6.38;;
2652;SDS011;1336;48.692;9.144;2022-09-25T10:27:28;7.95;;;6.35;;
2652;SDS011;1336;48.692;9.144;2022-09-25T10:28:25;6.97;;;6.38;;
2652;SDS011;1336;48.692;9.144;2022-09-25T10:29:24;7.57;;;6.82;;
2652;SDS011;1336;48.692;9.144;2022-09-25T10:30:18;7.15;;;6.00;;
2652;SDS011;1336;48.692;9.144;2022-09-25T10:31:10;7.20;;;6.03;;
2652;SDS011;1336;48.692;9.144;2022-09-25T10:32:02;6.35;;;5.72;;
2652;SDS011;1336;48.692;9.144;2022-09-25T10:32:55;6.72;;;6.22;;